This is the latest recevied weather packets stored in our database for station/object KA7EII-13. If no packets are shown the sender has not sent any weather packets the latest 10 day(s).
| Time | Temp. | Humidity | Pressure | Rain* | Wind** | Luminosity | Snow |
|---|---|---|---|---|---|---|---|
| 1777696421 | 7.78° C | 50% | 1109.2 hPa | 0 mm | - | 0 W/m² | - |
| 1777696120 | 7.78° C | 49% | 1109.4 hPa | 0 mm | - | 0 W/m² | - |
| 1777695817 | 7.78° C | 52% | 1109 hPa | 0 mm | - | 0 W/m² | - |
| 1777695515 | 7.78° C | 51% | 1109.3 hPa | 0 mm | - | 0 W/m² | - |
| 1777695212 | 8.33° C | 50% | 1109.2 hPa | 0 mm | - | 0 W/m² | - |
| 1777694909 | 8.33° C | 49% | 1109.2 hPa | 0 mm | - | 0 W/m² | - |
| 1777694606 | 8.89° C | 47% | 1109.2 hPa | 0 mm | - | 0 W/m² | - |
| 1777694302 | 9.44° C | 45% | 1109.2 hPa | 0 mm | - | 0 W/m² | - |
| 1777693999 | 9.44° C | 45% | 1109 hPa | 0 mm | - | 0 W/m² | - |
| 1777693696 | 10° C | 44% | 1109 hPa | 0 mm | - | 0 W/m² | - |
| 1777693395 | 10° C | 43% | 1109.1 hPa | 0 mm | - | 0 W/m² | - |
| 1777693093 | 10° C | 43% | 1109.1 hPa | 0 mm | - | 0 W/m² | - |
| 1777692790 | 10.56° C | 42% | 1108.6 hPa | 0 mm | - | 0 W/m² | - |
| 1777692486 | 11.11° C | 41% | 1108.9 hPa | 0 mm | - | 0 W/m² | - |
| 1777692182 | 11.67° C | 38% | 1108.6 hPa | 0 mm | - | 0 W/m² | - |
| 1777691880 | 12.22° C | 36% | 1108.6 hPa | 0 mm | - | 0 W/m² | - |
| 1777691578 | 12.22° C | 35% | 1108.5 hPa | 0 mm | - | 0 W/m² | - |
| 1777691277 | 11.67° C | 37% | 1108.5 hPa | 0 mm | - | 0 W/m² | - |
| 1777690974 | 12.22° C | 34% | 1108.5 hPa | 0 mm | - | 0 W/m² | - |
| 1777690671 | 12.78° C | 33% | 1108.4 hPa | 0 mm | - | 0 W/m² | - |
| 1777690369 | 13.33° C | 31% | 1108.2 hPa | 0 mm | - | 0 W/m² | - |
| 1777690067 | 13.89° C | 30% | 1108.1 hPa | 0 mm | - | 0 W/m² | - |
| 1777689764 | 14.44° C | 29% | 1108.2 hPa | 0 mm | - | 0 W/m² | - |
| 1777689462 | 14.44° C | 28% | 1108.4 hPa | 0 mm | - | 0 W/m² | - |
| 1777689160 | 15° C | 27% | 1108.3 hPa | 0 mm | - | 0 W/m² | - |
* Rain latest hour (hover to see other rain measurements)
** Current wind speed in m/s (hover to see current wind gust speed)